createdAt,value
2019-01-30T00:01:07.055Z,6.50
2019-01-30T00:03:48.196Z,9.23
2019-01-30T00:06:17.086Z,8.97
2019-01-30T00:09:25.742Z,7.10
2019-01-30T00:12:13.693Z,7.90
2019-01-30T00:15:01.683Z,9.03
2019-01-30T00:17:30.334Z,8.13
2019-01-30T00:20:18.402Z,6.37
2019-01-30T00:23:06.506Z,5.47
2019-01-30T00:25:54.966Z,7.37
2019-01-30T00:28:43.014Z,6.93
2019-01-30T00:31:30.961Z,6.73
2019-01-30T00:34:18.953Z,7.50
2019-01-30T00:37:06.954Z,5.43
2019-01-30T00:39:54.860Z,9.20
2019-01-30T00:42:42.910Z,6.57
2019-01-30T00:45:30.950Z,6.93
2019-01-30T00:48:18.830Z,7.10
2019-01-30T00:51:06.873Z,5.30
2019-01-30T00:53:54.713Z,8.90
2019-01-30T00:56:42.937Z,7.50
2019-01-30T00:59:30.746Z,7.43
2019-01-30T01:02:18.654Z,7.80
2019-01-30T01:05:06.933Z,10.13
2019-01-30T01:07:54.819Z,8.43
2019-01-30T01:10:35.625Z,6.47
2019-01-30T01:13:16.594Z,6.57
2019-01-30T01:15:57.217Z,6.00
2019-01-30T01:18:38.014Z,8.57
2019-01-30T01:21:18.890Z,8.03
2019-01-30T01:23:59.909Z,8.20
2019-01-30T01:26:40.892Z,8.23
2019-01-30T01:29:22.014Z,6.37
2019-01-30T01:32:02.805Z,9.83
2019-01-30T01:34:43.729Z,7.77
2019-01-30T01:37:24.333Z,6.47
2019-01-30T01:40:05.329Z,6.43
2019-01-30T01:42:46.119Z,8.67
2019-01-30T01:45:26.795Z,8.13
2019-01-30T01:48:07.513Z,8.33
2019-01-30T01:50:48.507Z,9.20
2019-01-30T01:53:29.129Z,9.00
2019-01-30T01:56:10.386Z,7.53
2019-01-30T02:02:10.530Z,9.33
2019-01-30T02:04:51.034Z,8.47
2019-01-30T02:07:31.751Z,9.20
2019-01-30T02:10:12.642Z,9.10
2019-01-30T02:12:53.472Z,10.93
2019-01-30T02:15:34.029Z,8.63
2019-01-30T02:18:15.294Z,7.67
2019-01-30T02:20:55.865Z,7.27
2019-01-30T02:23:37.020Z,10.37
2019-01-30T02:26:18.054Z,8.30
2019-01-30T02:28:58.607Z,9.17
2019-01-30T02:31:39.218Z,8.37
2019-01-30T02:34:19.761Z,9.23
2019-01-30T02:37:00.250Z,11.73
2019-01-30T02:39:40.726Z,9.63
2019-01-30T02:42:21.133Z,8.20
2019-01-30T02:45:01.590Z,8.23
2019-01-30T02:47:42.292Z,8.10
2019-01-30T02:50:22.903Z,7.70
2019-01-30T02:53:03.416Z,7.90
2019-01-30T02:55:44.102Z,9.40
2019-01-30T02:58:24.950Z,8.17
2019-01-30T03:04:25.316Z,10.33
2019-01-30T03:10:11.493Z,7.97
2019-01-30T03:12:52.194Z,8.03
2019-01-30T03:15:32.480Z,8.80
2019-01-30T03:18:12.896Z,6.80
2019-01-30T03:21:12.974Z,8.03
2019-01-30T03:23:54.226Z,10.10
2019-01-30T03:26:54.396Z,7.43
2019-01-30T03:29:35.588Z,8.37
2019-01-30T03:32:16.608Z,7.83
2019-01-30T03:34:57.158Z,8.03
2019-01-30T03:37:37.806Z,6.67
2019-01-30T03:40:18.442Z,7.70
2019-01-30T03:42:59.188Z,7.30
2019-01-30T03:45:39.714Z,9.20
2019-01-30T03:48:20.599Z,8.13
2019-01-30T03:51:00.951Z,7.50
2019-01-30T03:53:41.858Z,8.10
2019-01-30T03:56:23.096Z,8.17
2019-01-30T03:59:03.857Z,8.30
2019-01-30T04:01:44.782Z,6.70
2019-01-30T04:04:25.976Z,5.53
2019-01-30T04:10:25.873Z,9.37
2019-01-30T04:13:06.611Z,7.53
2019-01-30T04:15:47.389Z,7.43
2019-01-30T04:18:28.315Z,6.67
2019-01-30T04:21:08.709Z,8.70
2019-01-30T04:23:49.345Z,8.17
2019-01-30T04:26:29.737Z,6.07
2019-01-30T04:29:10.477Z,8.10
2019-01-30T04:31:51.380Z,6.33
2019-01-30T04:34:32.071Z,5.90
2019-01-30T04:40:32.022Z,8.83
2019-01-30T04:43:12.486Z,6.03
2019-01-30T04:45:53.173Z,8.87
2019-01-30T04:48:33.761Z,7.40
2019-01-30T04:51:14.326Z,6.57
2019-01-30T04:53:55.229Z,6.07
2019-01-30T04:56:35.741Z,5.00
2019-01-30T05:05:29.785Z,4.87
2019-01-30T05:08:10.756Z,7.27
2019-01-30T05:10:51.923Z,6.70
2019-01-30T05:13:32.256Z,5.00
2019-01-30T05:16:13.346Z,5.77
2019-01-30T05:18:53.982Z,6.83
2019-01-30T05:21:34.447Z,6.70
2019-01-30T05:24:15.403Z,6.97
2019-01-30T05:26:56.337Z,6.07
2019-01-30T05:29:37.295Z,6.53
2019-01-30T05:32:18.087Z,5.13
2019-01-30T05:34:59.208Z,5.83
2019-01-30T05:37:39.778Z,5.73
2019-01-30T05:40:20.610Z,6.63
2019-01-30T05:43:01.057Z,6.30
2019-01-30T05:48:50.159Z,4.57
2019-01-30T05:51:30.933Z,4.23
2019-01-30T05:54:11.967Z,6.40
2019-01-30T05:56:52.682Z,5.07
2019-01-30T05:59:33.410Z,7.70
2019-01-30T06:02:15.810Z,6.73
2019-01-30T06:04:56.838Z,4.93
2019-01-30T06:07:37.983Z,4.30
2019-01-30T06:10:18.850Z,4.73
2019-01-30T06:12:59.615Z,4.13
2019-01-30T06:15:40.222Z,4.03
2019-01-30T06:18:21.343Z,4.97
2019-01-30T06:21:01.668Z,6.63
2019-01-30T06:23:42.658Z,4.17
2019-01-30T06:26:23.903Z,3.87
2019-01-30T06:29:04.417Z,5.20
2019-01-30T06:31:44.775Z,7.57
2019-01-30T06:34:25.491Z,5.40
2019-01-30T06:37:06.287Z,5.37
2019-01-30T06:39:47.162Z,6.57
2019-01-30T06:42:27.506Z,6.87
2019-01-30T06:45:07.894Z,6.00
2019-01-30T06:50:56.745Z,5.13
2019-01-30T06:53:37.913Z,5.90
2019-01-30T06:56:18.874Z,6.23
2019-01-30T06:59:00.091Z,6.23
2019-01-30T07:01:41.268Z,9.23
2019-01-30T07:04:21.751Z,7.00
2019-01-30T07:07:02.580Z,7.27
2019-01-30T07:13:02.751Z,5.97
2019-01-30T07:15:43.650Z,8.70
2019-01-30T07:18:25.510Z,7.50
2019-01-30T07:21:06.370Z,6.30
2019-01-30T07:23:47.565Z,9.63
2019-01-30T07:26:28.657Z,8.07
2019-01-30T07:29:12.546Z,8.30
2019-01-30T07:31:53.167Z,7.20
2019-01-30T07:34:33.958Z,8.63
2019-01-30T07:37:14.809Z,8.07
2019-01-30T07:39:55.707Z,7.53
2019-01-30T07:42:36.321Z,9.17
2019-01-30T07:45:17.000Z,8.23
2019-01-30T07:47:57.802Z,9.03
2019-01-30T07:50:38.731Z,8.43
2019-01-30T07:53:19.633Z,7.17
2019-01-30T07:56:00.302Z,8.80
2019-01-30T07:58:40.901Z,8.97
2019-01-30T08:01:22.167Z,11.40
2019-01-30T08:04:03.498Z,8.37
2019-01-30T08:06:44.614Z,9.33
2019-01-30T08:09:25.059Z,8.63
2019-01-30T08:12:05.429Z,9.10
2019-01-30T08:14:46.454Z,10.73
2019-01-30T08:17:27.140Z,8.97
2019-01-30T08:20:07.837Z,9.47
2019-01-30T08:22:48.645Z,9.43
2019-01-30T08:25:28.954Z,7.63
2019-01-30T08:28:09.623Z,10.60
2019-01-30T08:30:50.419Z,9.50
2019-01-30T08:33:30.847Z,10.37
2019-01-30T08:36:11.753Z,8.17
2019-01-30T08:38:52.630Z,13.07
2019-01-30T08:41:33.178Z,11.50
2019-01-30T08:44:13.662Z,9.53
2019-01-30T08:46:54.435Z,11.53
2019-01-30T08:49:35.207Z,11.53
2019-01-30T08:52:15.622Z,13.10
2019-01-30T08:54:56.330Z,9.53
2019-01-30T08:57:36.982Z,11.17
2019-01-30T09:00:17.919Z,10.47
2019-01-30T09:02:58.658Z,10.30
2019-01-30T09:05:39.511Z,10.33
2019-01-30T09:08:19.886Z,11.33
2019-01-30T09:11:00.713Z,9.80
2019-01-30T09:13:41.487Z,12.60
2019-01-30T09:16:22.330Z,11.73
2019-01-30T09:19:02.951Z,11.87
2019-01-30T09:21:43.370Z,11.57
2019-01-30T09:24:24.110Z,11.40
2019-01-30T09:27:04.718Z,10.23
2019-01-30T09:29:45.318Z,10.53
2019-01-30T09:32:26.221Z,11.73
2019-01-30T09:35:06.939Z,11.23
2019-01-30T09:37:47.430Z,10.67
2019-01-30T09:40:28.424Z,11.70
2019-01-30T09:43:09.120Z,12.07
2019-01-30T09:45:49.859Z,13.07
2019-01-30T09:48:30.190Z,12.63
2019-01-30T09:51:10.997Z,14.10
2019-01-30T09:53:51.663Z,10.40
2019-01-30T09:56:32.694Z,11.83
2019-01-30T09:59:14.015Z,11.80
2019-01-30T10:01:54.900Z,11.13
2019-01-30T10:04:35.590Z,11.40
2019-01-30T10:07:16.231Z,10.63
2019-01-30T10:09:57.010Z,9.60
2019-01-30T10:12:38.110Z,9.97
2019-01-30T10:15:18.816Z,10.83
2019-01-30T10:17:59.542Z,12.27
2019-01-30T10:20:40.030Z,10.33
2019-01-30T10:23:21.078Z,10.20
2019-01-30T10:26:01.844Z,10.70
2019-01-30T10:28:42.767Z,11.37
2019-01-30T10:31:23.811Z,9.90
2019-01-30T10:33:52.353Z,11.23
2019-01-30T10:36:40.320Z,9.97
2019-01-30T10:39:28.194Z,11.53
2019-01-30T10:42:16.134Z,12.87
2019-01-30T10:45:24.738Z,10.37
2019-01-30T10:48:12.710Z,12.33
2019-01-30T10:51:00.520Z,9.13
2019-01-30T10:53:48.422Z,12.27
2019-01-30T10:56:36.313Z,11.87
2019-01-30T10:59:26.659Z,13.70
2019-01-30T11:02:13.747Z,9.77
2019-01-30T11:05:01.694Z,9.47
2019-01-30T11:07:49.598Z,12.33
2019-01-30T11:10:30.217Z,10.83
2019-01-30T11:13:11.189Z,10.57
2019-01-30T11:15:52.142Z,10.97
2019-01-30T11:18:36.178Z,10.80
2019-01-30T11:21:16.694Z,11.03
2019-01-30T11:23:57.730Z,9.33
2019-01-30T11:26:38.786Z,11.80
2019-01-30T11:29:19.551Z,8.93
2019-01-30T11:31:59.952Z,11.27
2019-01-30T11:34:40.442Z,8.30
2019-01-30T11:37:21.363Z,10.90
2019-01-30T11:40:02.559Z,9.23
2019-01-30T11:42:43.408Z,11.13
2019-01-30T11:45:23.954Z,9.97
2019-01-30T11:48:04.720Z,11.27
2019-01-30T11:50:45.592Z,10.20
2019-01-30T11:53:26.309Z,9.63
2019-01-30T11:56:06.926Z,10.37
2019-01-30T11:58:47.774Z,10.40
2019-01-30T12:01:28.694Z,9.70
2019-01-30T12:04:17.660Z,9.53
2019-01-30T12:06:51.715Z,8.67
2019-01-30T12:09:32.418Z,9.67
2019-01-30T12:12:13.389Z,9.97
2019-01-30T12:14:54.169Z,9.60
2019-01-30T12:17:35.166Z,8.33
2019-01-30T12:20:16.110Z,8.50
2019-01-30T12:22:56.910Z,8.77
2019-01-30T12:25:37.554Z,10.20
2019-01-30T12:28:18.108Z,9.80
2019-01-30T12:30:58.913Z,8.47
2019-01-30T12:33:39.810Z,9.63
2019-01-30T12:36:20.630Z,9.87
2019-01-30T12:39:01.102Z,8.43
2019-01-30T12:41:41.442Z,9.13
2019-01-30T12:44:21.893Z,9.87
2019-01-30T12:47:02.479Z,10.93
2019-01-30T12:49:43.312Z,9.57
2019-01-30T12:52:23.778Z,9.77
2019-01-30T12:55:04.642Z,9.60
2019-01-30T12:57:45.362Z,8.53
2019-01-30T13:00:26.047Z,9.50
2019-01-30T13:06:25.762Z,10.33
2019-01-30T13:09:06.390Z,9.23
2019-01-30T13:11:46.854Z,10.70
2019-01-30T13:14:27.391Z,9.60
2019-01-30T13:20:20.007Z,8.50
2019-01-30T13:23:00.582Z,8.97
2019-01-30T13:25:48.491Z,7.07
2019-01-30T13:28:36.362Z,9.67
2019-01-30T13:31:24.270Z,8.50
2019-01-30T13:34:12.154Z,7.07
2019-01-30T13:37:00.064Z,6.63
2019-01-30T13:39:47.954Z,6.93
2019-01-30T13:42:35.759Z,6.97
2019-01-30T13:45:23.662Z,7.47
2019-01-30T13:48:11.605Z,6.37
2019-01-30T13:50:59.512Z,7.33
2019-01-30T13:53:47.417Z,6.97
2019-01-30T13:56:35.306Z,8.10
2019-01-30T13:59:23.173Z,7.23
2019-01-30T14:02:11.016Z,7.37
2019-01-30T14:04:59.760Z,7.40
2019-01-30T14:07:48.623Z,8.53
2019-01-30T14:10:29.143Z,9.07
2019-01-30T14:13:09.801Z,9.67
2019-01-30T14:15:50.643Z,8.00
2019-01-30T14:18:31.173Z,10.17
2019-01-30T14:21:11.632Z,8.43
2019-01-30T14:23:52.151Z,9.20
2019-01-30T14:26:32.677Z,8.27
2019-01-30T14:29:13.368Z,10.30
2019-01-30T14:31:54.141Z,9.10
2019-01-30T14:34:35.082Z,9.03
2019-01-30T14:37:15.669Z,9.73
2019-01-30T14:39:55.987Z,9.53
2019-01-30T14:42:24.575Z,9.87
2019-01-30T14:45:33.150Z,8.67
2019-01-30T14:48:21.055Z,9.90
2019-01-30T14:51:09.049Z,9.33
2019-01-30T14:53:56.948Z,9.80
2019-01-30T14:56:44.898Z,10.00
2019-01-30T14:59:32.756Z,8.40
2019-01-30T15:02:20.681Z,8.13
2019-01-30T15:05:29.238Z,9.63
2019-01-30T15:08:17.138Z,10.57
2019-01-30T15:10:58.135Z,9.13
2019-01-30T15:13:38.921Z,10.90
2019-01-30T15:16:19.206Z,12.33
2019-01-30T15:18:59.990Z,9.10
2019-01-30T15:21:40.999Z,8.87
2019-01-30T15:24:21.558Z,9.63
2019-01-30T15:27:02.360Z,9.87
2019-01-30T15:29:43.247Z,8.27
2019-01-30T15:32:23.974Z,8.63
2019-01-30T15:35:04.576Z,8.97
2019-01-30T15:37:45.026Z,7.57
2019-01-30T15:40:25.562Z,8.57
2019-01-30T15:43:06.327Z,7.87
2019-01-30T15:45:47.373Z,8.37
2019-01-30T15:51:36.429Z,11.23
2019-01-30T15:54:18.903Z,7.73
2019-01-30T15:56:59.710Z,7.70
2019-01-30T15:59:40.158Z,7.70
2019-01-30T16:02:20.702Z,8.63
2019-01-30T16:05:01.170Z,7.97
2019-01-30T16:07:41.869Z,7.80
2019-01-30T16:10:22.414Z,7.90
2019-01-30T16:13:03.591Z,8.83
2019-01-30T16:15:44.542Z,9.30
2019-01-30T16:18:25.110Z,8.33
2019-01-30T16:21:05.502Z,8.43
2019-01-30T16:23:46.298Z,9.33
2019-01-30T16:26:27.205Z,8.57
2019-01-30T16:29:08.103Z,9.03
2019-01-30T16:31:48.490Z,9.63
2019-01-30T16:34:28.948Z,8.67
2019-01-30T16:37:09.790Z,9.03
2019-01-30T16:39:50.853Z,7.93
2019-01-30T16:45:39.918Z,7.80
2019-01-30T16:48:20.790Z,8.53
2019-01-30T16:51:01.936Z,9.73
2019-01-30T16:53:42.854Z,8.43
2019-01-30T16:56:23.200Z,10.77
2019-01-30T16:59:03.562Z,10.70
2019-01-30T17:01:44.223Z,8.93
2019-01-30T17:04:24.714Z,10.47
2019-01-30T17:07:05.927Z,8.50
2019-01-30T17:09:47.409Z,7.90
2019-01-30T17:12:28.626Z,10.13
2019-01-30T17:15:09.214Z,8.67
2019-01-30T17:17:50.285Z,7.70
2019-01-30T17:23:39.534Z,8.47
2019-01-30T17:26:20.315Z,9.50
2019-01-30T17:29:01.178Z,7.87
2019-01-30T17:31:41.847Z,10.10
2019-01-30T17:34:22.909Z,9.17
2019-01-30T17:37:04.089Z,11.23
2019-01-30T17:39:45.357Z,9.30
2019-01-30T17:42:26.494Z,11.53
2019-01-30T17:48:12.298Z,8.97
2019-01-30T17:50:52.818Z,12.33
2019-01-30T17:53:33.177Z,7.80
2019-01-30T17:56:13.869Z,9.03
2019-01-30T17:58:54.365Z,9.23
2019-01-30T18:04:45.654Z,8.70
2019-01-30T18:07:26.638Z,8.50
2019-01-30T18:10:07.585Z,7.53
2019-01-30T18:12:48.309Z,8.13
2019-01-30T18:15:29.203Z,7.87
2019-01-30T18:18:09.694Z,8.90
2019-01-30T18:20:50.438Z,8.97
2019-01-30T18:23:31.186Z,9.13
2019-01-30T18:29:17.000Z,9.23
2019-01-30T18:31:57.647Z,9.10
2019-01-30T18:34:38.388Z,8.23
2019-01-30T18:37:19.301Z,7.93
2019-01-30T18:40:00.419Z,9.23
2019-01-30T18:42:41.041Z,7.73
2019-01-30T18:45:21.423Z,9.03
2019-01-30T18:48:02.302Z,9.37
2019-01-30T18:50:45.706Z,10.17
2019-01-30T18:53:27.257Z,10.50
2019-01-30T18:56:08.684Z,9.47
2019-01-30T18:58:49.449Z,9.70
2019-01-30T19:01:18.186Z,9.47
2019-01-30T19:04:06.139Z,8.33
2019-01-30T19:06:54.046Z,10.00
2019-01-30T19:09:34.370Z,9.90
2019-01-30T19:12:14.987Z,9.60
2019-01-30T19:14:55.902Z,8.87
2019-01-30T19:17:36.604Z,9.53
2019-01-30T19:20:17.375Z,9.00
2019-01-30T19:22:57.958Z,9.90
2019-01-30T19:25:38.601Z,9.13
2019-01-30T19:28:19.290Z,8.70
2019-01-30T19:31:00.042Z,9.57
2019-01-30T19:33:41.080Z,10.40
2019-01-30T19:36:22.014Z,8.37
2019-01-30T19:38:50.557Z,11.20
2019-01-30T19:41:38.457Z,8.73
2019-01-30T19:44:26.336Z,8.63
2019-01-30T19:47:14.238Z,8.73
2019-01-30T19:49:42.778Z,9.37
2019-01-30T19:52:30.686Z,10.80
2019-01-30T19:55:18.571Z,10.33
2019-01-30T19:58:06.543Z,8.97
2019-01-30T20:00:54.466Z,9.90
2019-01-30T20:03:42.405Z,11.47
2019-01-30T20:06:30.242Z,8.23
2019-01-30T20:12:19.415Z,6.63
2019-01-30T20:15:00.451Z,11.03
2019-01-30T20:17:40.959Z,9.33
2019-01-30T20:20:22.079Z,9.33
2019-01-30T20:23:02.952Z,9.07
2019-01-30T20:25:44.085Z,9.40
2019-01-30T20:28:25.299Z,8.23
2019-01-30T20:31:06.550Z,8.73
2019-01-30T20:33:47.510Z,8.40
2019-01-30T20:36:28.511Z,8.63
2019-01-30T20:39:09.506Z,10.40
2019-01-30T20:41:49.914Z,8.23
2019-01-30T20:47:50.284Z,7.10
2019-01-30T20:50:31.258Z,10.23
2019-01-30T20:53:11.878Z,10.83
2019-01-30T20:55:52.788Z,9.53
2019-01-30T20:58:33.334Z,8.57
2019-01-30T21:01:14.271Z,7.87
2019-01-30T21:03:54.978Z,9.53
2019-01-30T21:06:35.818Z,8.93
2019-01-30T21:09:16.842Z,9.57
2019-01-30T21:11:57.495Z,8.70
2019-01-30T21:14:38.429Z,8.50
2019-01-30T21:17:19.250Z,10.53
2019-01-30T21:23:19.545Z,8.73
2019-01-30T21:26:00.137Z,11.83
2019-01-30T21:28:40.902Z,11.80
2019-01-30T21:34:28.394Z,10.20
2019-01-30T21:37:16.293Z,10.17
2019-01-30T21:40:23.510Z,13.87
2019-01-30T21:42:52.071Z,12.53
2019-01-30T21:45:39.953Z,13.40
2019-01-30T21:48:27.855Z,13.27
2019-01-30T21:51:15.734Z,13.87
2019-01-30T21:54:03.710Z,14.00
2019-01-30T21:56:51.596Z,16.50
2019-01-30T21:59:39.495Z,17.07
2019-01-30T22:02:27.374Z,16.83
2019-01-30T22:05:15.350Z,16.13
2019-01-30T22:08:03.355Z,17.37
2019-01-30T22:10:43.750Z,16.03
2019-01-30T22:13:24.116Z,20.90
2019-01-30T22:16:04.773Z,19.13
2019-01-30T22:18:45.752Z,18.97
2019-01-30T22:21:26.494Z,17.77
2019-01-30T22:24:07.158Z,16.60
2019-01-30T22:26:48.053Z,18.30
2019-01-30T22:29:29.024Z,20.03
2019-01-30T22:35:28.750Z,18.87
2019-01-30T22:38:12.527Z,19.03
2019-01-30T22:40:51.610Z,19.63
2019-01-30T22:43:32.309Z,21.07
2019-01-30T22:46:13.031Z,18.87
2019-01-30T22:48:41.603Z,20.70
2019-01-30T22:51:29.477Z,19.13
2019-01-30T22:54:17.310Z,18.20
2019-01-30T22:57:05.193Z,19.33
2019-01-30T22:59:53.106Z,18.07
2019-01-30T23:02:58.754Z,19.03
2019-01-30T23:06:05.986Z,18.60
2019-01-30T23:09:14.618Z,18.80
2019-01-30T23:11:57.554Z,20.90
2019-01-30T23:14:37.550Z,16.03
2019-01-30T23:17:18.603Z,20.17
2019-01-30T23:19:59.072Z,18.03
2019-01-30T23:22:39.654Z,19.83
2019-01-30T23:28:25.374Z,19.27
2019-01-30T23:31:05.903Z,19.30
2019-01-30T23:33:46.424Z,18.63
2019-01-30T23:36:27.147Z,17.40
2019-01-30T23:39:07.960Z,19.23
2019-01-30T23:41:49.027Z,18.33
2019-01-30T23:44:29.846Z,18.17
2019-01-30T23:47:10.724Z,19.97
2019-01-30T23:49:51.758Z,19.00
2019-01-30T23:52:32.626Z,16.93
2019-01-30T23:55:13.402Z,18.20
2019-01-30T23:57:54.226Z,20.90
